sensor_id;sensor_type;location;lat;lon;timestamp;temperature;humidity
31735;DHT22;18313;48.518;9.124;2023-05-21T00:01:23;16.00;99.90
31735;DHT22;18313;48.518;9.124;2023-05-21T00:03:51;15.90;99.90
31735;DHT22;18313;48.518;9.124;2023-05-21T00:06:19;15.90;99.90
31735;DHT22;18313;48.518;9.124;2023-05-21T00:08:47;15.80;99.90
31735;DHT22;18313;48.518;9.124;2023-05-21T00:11:13;15.80;99.90
31735;DHT22;18313;48.518;9.124;2023-05-21T00:13:41;15.80;99.90
31735;DHT22;18313;48.518;9.124;2023-05-21T00:16:08;15.80;99.90
31735;DHT22;18313;48.518;9.124;2023-05-21T00:18:37;15.80;99.90
31735;DHT22;18313;48.518;9.124;2023-05-21T00:21:05;15.80;99.90
31735;DHT22;18313;48.518;9.124;2023-05-21T00:23:32;15.70;99.90
31735;DHT22;18313;48.518;9.124;2023-05-21T00:25:59;15.70;99.90
31735;DHT22;18313;48.518;9.124;2023-05-21T00:28:27;15.70;99.90
31735;DHT22;18313;48.518;9.124;2023-05-21T00:30:54;15.60;99.90
31735;DHT22;18313;48.518;9.124;2023-05-21T00:33:21;15.60;99.90
31735;DHT22;18313;48.518;9.124;2023-05-21T00:35:52;15.60;99.90
31735;DHT22;18313;48.518;9.124;2023-05-21T00:38:19;15.60;99.90
31735;DHT22;18313;48.518;9.124;2023-05-21T00:40:46;15.50;99.90
31735;DHT22;18313;48.518;9.124;2023-05-21T00:43:13;15.50;99.90
31735;DHT22;18313;48.518;9.124;2023-05-21T00:45:41;15.50;99.90
31735;DHT22;18313;48.518;9.124;2023-05-21T00:48:12;15.40;99.90
31735;DHT22;18313;48.518;9.124;2023-05-21T00:50:40;15.20;99.90
31735;DHT22;18313;48.518;9.124;2023-05-21T00:53:08;15.30;99.90
31735;DHT22;18313;48.518;9.124;2023-05-21T00:55:38;15.20;99.90
31735;DHT22;18313;48.518;9.124;2023-05-21T00:58:06;15.10;99.90
31735;DHT22;18313;48.518;9.124;2023-05-21T01:00:34;15.00;99.90
31735;DHT22;18313;48.518;9.124;2023-05-21T01:03:03;15.00;99.90
31735;DHT22;18313;48.518;9.124;2023-05-21T01:05:30;15.00;99.90
31735;DHT22;18313;48.518;9.124;2023-05-21T01:07:58;14.90;99.90
31735;DHT22;18313;48.518;9.124;2023-05-21T01:10:26;14.90;99.90
31735;DHT22;18313;48.518;9.124;2023-05-21T01:12:57;14.90;99.90
31735;DHT22;18313;48.518;9.124;2023-05-21T01:15:26;14.80;99.90
31735;DHT22;18313;48.518;9.124;2023-05-21T01:17:53;14.90;99.90
31735;DHT22;18313;48.518;9.124;2023-05-21T01:20:22;14.80;99.90
31735;DHT22;18313;48.518;9.124;2023-05-21T01:22:53;14.80;99.90
31735;DHT22;18313;48.518;9.124;2023-05-21T01:25:24;14.80;99.90
31735;DHT22;18313;48.518;9.124;2023-05-21T01:27:51;14.70;99.90
31735;DHT22;18313;48.518;9.124;2023-05-21T01:30:20;14.70;99.90
31735;DHT22;18313;48.518;9.124;2023-05-21T01:32:55;14.70;99.90
31735;DHT22;18313;48.518;9.124;2023-05-21T01:35:28;14.70;99.90
31735;DHT22;18313;48.518;9.124;2023-05-21T01:38:16;14.60;99.90
31735;DHT22;18313;48.518;9.124;2023-05-21T01:41:01;14.60;99.90
31735;DHT22;18313;48.518;9.124;2023-05-21T01:43:33;14.60;99.90
31735;DHT22;18313;48.518;9.124;2023-05-21T01:46:00;14.60;99.90
31735;DHT22;18313;48.518;9.124;2023-05-21T01:48:28;14.70;99.90
31735;DHT22;18313;48.518;9.124;2023-05-21T01:51:02;14.60;99.90
31735;DHT22;18313;48.518;9.124;2023-05-21T01:53:29;14.60;99.90
31735;DHT22;18313;48.518;9.124;2023-05-21T01:55:56;14.60;99.90
31735;DHT22;18313;48.518;9.124;2023-05-21T01:58:25;14.60;99.90
31735;DHT22;18313;48.518;9.124;2023-05-21T02:00:52;14.60;99.90
31735;DHT22;18313;48.518;9.124;2023-05-21T02:03:19;14.60;99.90
31735;DHT22;18313;48.518;9.124;2023-05-21T02:05:47;14.60;99.90
31735;DHT22;18313;48.518;9.124;2023-05-21T02:08:14;14.60;99.90
31735;DHT22;18313;48.518;9.124;2023-05-21T02:10:41;14.50;99.90
31735;DHT22;18313;48.518;9.124;2023-05-21T02:13:08;14.50;99.90
31735;DHT22;18313;48.518;9.124;2023-05-21T02:15:35;14.50;99.90
31735;DHT22;18313;48.518;9.124;2023-05-21T02:18:03;14.40;99.90
31735;DHT22;18313;48.518;9.124;2023-05-21T02:20:30;14.40;99.90
31735;DHT22;18313;48.518;9.124;2023-05-21T02:22:57;14.50;99.90
31735;DHT22;18313;48.518;9.124;2023-05-21T02:25:24;14.40;99.90
31735;DHT22;18313;48.518;9.124;2023-05-21T02:27:51;14.40;99.90
31735;DHT22;18313;48.518;9.124;2023-05-21T02:30:19;14.40;99.90
31735;DHT22;18313;48.518;9.124;2023-05-21T02:32:47;14.30;99.90
31735;DHT22;18313;48.518;9.124;2023-05-21T02:35:15;14.40;99.90
31735;DHT22;18313;48.518;9.124;2023-05-21T02:37:42;14.30;99.90
31735;DHT22;18313;48.518;9.124;2023-05-21T02:40:10;14.30;99.90
31735;DHT22;18313;48.518;9.124;2023-05-21T02:42:38;14.20;99.90
31735;DHT22;18313;48.518;9.124;2023-05-21T02:45:07;14.20;99.90
31735;DHT22;18313;48.518;9.124;2023-05-21T02:47:35;14.20;99.90
31735;DHT22;18313;48.518;9.124;2023-05-21T02:50:05;14.10;99.90
31735;DHT22;18313;48.518;9.124;2023-05-21T02:52:33;14.00;99.90
31735;DHT22;18313;48.518;9.124;2023-05-21T02:55:00;14.00;99.90
31735;DHT22;18313;48.518;9.124;2023-05-21T02:57:27;14.10;99.90
31735;DHT22;18313;48.518;9.124;2023-05-21T02:59:54;14.00;99.90
31735;DHT22;18313;48.518;9.124;2023-05-21T03:02:21;13.90;99.90
31735;DHT22;18313;48.518;9.124;2023-05-21T03:04:49;13.80;99.90
31735;DHT22;18313;48.518;9.124;2023-05-21T03:07:18;13.80;99.90
31735;DHT22;18313;48.518;9.124;2023-05-21T03:09:45;13.70;99.90
31735;DHT22;18313;48.518;9.124;2023-05-21T03:12:13;13.70;99.90
31735;DHT22;18313;48.518;9.124;2023-05-21T03:14:40;13.70;99.90
31735;DHT22;18313;48.518;9.124;2023-05-21T03:17:12;13.50;99.90
31735;DHT22;18313;48.518;9.124;2023-05-21T03:19:44;13.40;99.90
31735;DHT22;18313;48.518;9.124;2023-05-21T03:22:11;13.40;99.90
31735;DHT22;18313;48.518;9.124;2023-05-21T03:24:38;13.40;99.90
31735;DHT22;18313;48.518;9.124;2023-05-21T03:27:06;13.40;99.90
31735;DHT22;18313;48.518;9.124;2023-05-21T03:29:33;13.30;99.90
31735;DHT22;18313;48.518;9.124;2023-05-21T03:32:00;13.30;99.90
31735;DHT22;18313;48.518;9.124;2023-05-21T03:34:28;13.40;99.90
31735;DHT22;18313;48.518;9.124;2023-05-21T03:36:55;13.40;99.90
31735;DHT22;18313;48.518;9.124;2023-05-21T03:39:22;13.30;99.90
31735;DHT22;18313;48.518;9.124;2023-05-21T03:41:49;13.30;99.90
31735;DHT22;18313;48.518;9.124;2023-05-21T03:44:17;13.20;99.90
31735;DHT22;18313;48.518;9.124;2023-05-21T03:46:44;13.20;99.90
31735;DHT22;18313;48.518;9.124;2023-05-21T03:49:13;13.20;99.90
31735;DHT22;18313;48.518;9.124;2023-05-21T03:51:40;13.10;99.90
31735;DHT22;18313;48.518;9.124;2023-05-21T03:54:07;13.20;99.90
31735;DHT22;18313;48.518;9.124;2023-05-21T03:56:34;13.10;99.90
31735;DHT22;18313;48.518;9.124;2023-05-21T03:59:01;13.10;99.90
31735;DHT22;18313;48.518;9.124;2023-05-21T04:01:28;13.10;99.90
31735;DHT22;18313;48.518;9.124;2023-05-21T04:03:56;13.10;99.90
31735;DHT22;18313;48.518;9.124;2023-05-21T04:06:23;13.10;99.90
31735;DHT22;18313;48.518;9.124;2023-05-21T04:08:50;13.10;99.90
31735;DHT22;18313;48.518;9.124;2023-05-21T04:11:18;13.10;99.90
31735;DHT22;18313;48.518;9.124;2023-05-21T04:13:45;13.10;99.90
31735;DHT22;18313;48.518;9.124;2023-05-21T04:16:13;13.20;99.90
31735;DHT22;18313;48.518;9.124;2023-05-21T04:18:45;13.20;99.90
31735;DHT22;18313;48.518;9.124;2023-05-21T04:21:13;13.20;99.90
31735;DHT22;18313;48.518;9.124;2023-05-21T04:23:40;13.30;99.90
31735;DHT22;18313;48.518;9.124;2023-05-21T04:26:07;13.30;99.90
31735;DHT22;18313;48.518;9.124;2023-05-21T04:28:34;13.30;99.90
31735;DHT22;18313;48.518;9.124;2023-05-21T04:31:01;13.30;99.90
31735;DHT22;18313;48.518;9.124;2023-05-21T04:33:28;13.30;99.90
31735;DHT22;18313;48.518;9.124;2023-05-21T04:35:56;13.40;99.90
31735;DHT22;18313;48.518;9.124;2023-05-21T04:38:23;13.40;99.90
31735;DHT22;18313;48.518;9.124;2023-05-21T04:40:51;13.40;99.90
31735;DHT22;18313;48.518;9.124;2023-05-21T04:43:19;13.40;99.90
31735;DHT22;18313;48.518;9.124;2023-05-21T04:45:55;13.40;99.90
31735;DHT22;18313;48.518;9.124;2023-05-21T04:48:22;13.40;99.90
31735;DHT22;18313;48.518;9.124;2023-05-21T04:50:50;13.40;99.90
31735;DHT22;18313;48.518;9.124;2023-05-21T04:53:19;13.40;99.90
31735;DHT22;18313;48.518;9.124;2023-05-21T04:55:46;13.40;99.90
31735;DHT22;18313;48.518;9.124;2023-05-21T04:58:13;13.50;99.90
31735;DHT22;18313;48.518;9.124;2023-05-21T05:00:43;13.60;99.90
31735;DHT22;18313;48.518;9.124;2023-05-21T05:03:16;13.70;99.90
31735;DHT22;18313;48.518;9.124;2023-05-21T05:05:45;13.70;99.90
31735;DHT22;18313;48.518;9.124;2023-05-21T05:08:13;13.80;99.90
31735;DHT22;18313;48.518;9.124;2023-05-21T05:10:41;13.90;99.90
31735;DHT22;18313;48.518;9.124;2023-05-21T05:13:09;14.00;99.90
31735;DHT22;18313;48.518;9.124;2023-05-21T05:15:36;14.00;99.90
31735;DHT22;18313;48.518;9.124;2023-05-21T05:18:05;14.10;99.90
31735;DHT22;18313;48.518;9.124;2023-05-21T05:20:34;14.10;99.90
31735;DHT22;18313;48.518;9.124;2023-05-21T05:23:01;14.20;99.90
31735;DHT22;18313;48.518;9.124;2023-05-21T05:25:28;14.30;99.90
31735;DHT22;18313;48.518;9.124;2023-05-21T05:27:55;14.40;99.90
31735;DHT22;18313;48.518;9.124;2023-05-21T05:30:22;14.40;99.90
31735;DHT22;18313;48.518;9.124;2023-05-21T05:32:49;14.50;99.90
31735;DHT22;18313;48.518;9.124;2023-05-21T05:35:17;14.60;99.90
31735;DHT22;18313;48.518;9.124;2023-05-21T05:37:44;14.60;99.90
31735;DHT22;18313;48.518;9.124;2023-05-21T05:40:11;14.60;99.90
31735;DHT22;18313;48.518;9.124;2023-05-21T05:42:38;14.70;99.90
31735;DHT22;18313;48.518;9.124;2023-05-21T05:45:06;14.70;99.90
31735;DHT22;18313;48.518;9.124;2023-05-21T05:47:33;14.90;99.90
31735;DHT22;18313;48.518;9.124;2023-05-21T05:50:00;15.00;99.90
31735;DHT22;18313;48.518;9.124;2023-05-21T05:52:27;15.10;99.90
31735;DHT22;18313;48.518;9.124;2023-05-21T05:54:55;15.20;99.90
31735;DHT22;18313;48.518;9.124;2023-05-21T05:57:22;15.20;99.90
31735;DHT22;18313;48.518;9.124;2023-05-21T05:59:49;15.30;99.90
31735;DHT22;18313;48.518;9.124;2023-05-21T06:02:16;15.30;99.90
31735;DHT22;18313;48.518;9.124;2023-05-21T06:04:43;15.40;99.90
31735;DHT22;18313;48.518;9.124;2023-05-21T06:07:10;15.40;99.90
31735;DHT22;18313;48.518;9.124;2023-05-21T06:09:38;15.60;99.90
31735;DHT22;18313;48.518;9.124;2023-05-21T06:12:06;15.60;99.90
31735;DHT22;18313;48.518;9.124;2023-05-21T06:14:33;15.80;99.90
31735;DHT22;18313;48.518;9.124;2023-05-21T06:17:00;15.80;99.90
31735;DHT22;18313;48.518;9.124;2023-05-21T06:19:27;15.90;99.90
31735;DHT22;18313;48.518;9.124;2023-05-21T06:21:54;16.00;99.90
31735;DHT22;18313;48.518;9.124;2023-05-21T06:24:21;16.10;99.90
31735;DHT22;18313;48.518;9.124;2023-05-21T06:26:48;16.20;99.90
31735;DHT22;18313;48.518;9.124;2023-05-21T06:29:15;16.30;99.90
31735;DHT22;18313;48.518;9.124;2023-05-21T06:31:43;16.40;99.90
31735;DHT22;18313;48.518;9.124;2023-05-21T06:34:10;16.50;99.90
31735;DHT22;18313;48.518;9.124;2023-05-21T06:36:37;16.70;99.90
31735;DHT22;18313;48.518;9.124;2023-05-21T06:39:04;16.80;99.90
31735;DHT22;18313;48.518;9.124;2023-05-21T06:41:31;16.90;99.90
31735;DHT22;18313;48.518;9.124;2023-05-21T06:43:58;17.00;99.90
31735;DHT22;18313;48.518;9.124;2023-05-21T06:46:25;17.10;99.90
31735;DHT22;18313;48.518;9.124;2023-05-21T06:48:52;17.30;99.90
31735;DHT22;18313;48.518;9.124;2023-05-21T06:51:20;17.30;99.90
31735;DHT22;18313;48.518;9.124;2023-05-21T06:53:47;17.40;99.90
31735;DHT22;18313;48.518;9.124;2023-05-21T06:56:14;17.60;99.90
31735;DHT22;18313;48.518;9.124;2023-05-21T06:58:41;17.60;99.90
31735;DHT22;18313;48.518;9.124;2023-05-21T07:01:08;17.70;99.90
31735;DHT22;18313;48.518;9.124;2023-05-21T07:03:36;17.80;99.90
31735;DHT22;18313;48.518;9.124;2023-05-21T07:06:03;17.90;99.90
31735;DHT22;18313;48.518;9.124;2023-05-21T07:08:30;17.90;99.90
31735;DHT22;18313;48.518;9.124;2023-05-21T07:10:57;17.90;99.90
31735;DHT22;18313;48.518;9.124;2023-05-21T07:13:25;18.00;99.90
31735;DHT22;18313;48.518;9.124;2023-05-21T07:15:52;18.00;99.90
31735;DHT22;18313;48.518;9.124;2023-05-21T07:18:19;18.10;99.90
31735;DHT22;18313;48.518;9.124;2023-05-21T07:20:46;18.30;99.90
31735;DHT22;18313;48.518;9.124;2023-05-21T07:23:13;18.60;99.90
31735;DHT22;18313;48.518;9.124;2023-05-21T07:25:40;18.50;99.90
31735;DHT22;18313;48.518;9.124;2023-05-21T07:28:07;18.60;99.90
31735;DHT22;18313;48.518;9.124;2023-05-21T07:30:35;18.60;99.90
31735;DHT22;18313;48.518;9.124;2023-05-21T07:33:02;18.60;99.90
31735;DHT22;18313;48.518;9.124;2023-05-21T07:35:29;18.60;99.90
31735;DHT22;18313;48.518;9.124;2023-05-21T07:37:56;18.70;99.90
31735;DHT22;18313;48.518;9.124;2023-05-21T07:40:23;18.60;99.90
31735;DHT22;18313;48.518;9.124;2023-05-21T07:42:50;18.70;99.90
31735;DHT22;18313;48.518;9.124;2023-05-21T07:45:17;18.90;99.90
31735;DHT22;18313;48.518;9.124;2023-05-21T07:47:45;19.10;99.90
31735;DHT22;18313;48.518;9.124;2023-05-21T07:50:13;19.10;99.90
31735;DHT22;18313;48.518;9.124;2023-05-21T07:52:40;19.10;99.90
31735;DHT22;18313;48.518;9.124;2023-05-21T07:55:08;19.40;99.90
31735;DHT22;18313;48.518;9.124;2023-05-21T07:57:35;19.50;99.90
31735;DHT22;18313;48.518;9.124;2023-05-21T08:00:03;19.60;99.90
31735;DHT22;18313;48.518;9.124;2023-05-21T08:02:32;19.80;99.90
31735;DHT22;18313;48.518;9.124;2023-05-21T08:04:59;20.10;99.90
31735;DHT22;18313;48.518;9.124;2023-05-21T08:07:30;20.50;99.90
31735;DHT22;18313;48.518;9.124;2023-05-21T08:09:58;20.70;99.90
31735;DHT22;18313;48.518;9.124;2023-05-21T08:12:25;20.80;99.90
31735;DHT22;18313;48.518;9.124;2023-05-21T08:14:52;21.10;99.90
31735;DHT22;18313;48.518;9.124;2023-05-21T08:17:19;21.60;99.90
31735;DHT22;18313;48.518;9.124;2023-05-21T08:19:46;21.70;99.90
31735;DHT22;18313;48.518;9.124;2023-05-21T08:22:13;22.00;99.90
31735;DHT22;18313;48.518;9.124;2023-05-21T08:24:41;22.50;99.90
31735;DHT22;18313;48.518;9.124;2023-05-21T08:27:08;22.80;99.90
31735;DHT22;18313;48.518;9.124;2023-05-21T08:29:35;22.70;99.90
31735;DHT22;18313;48.518;9.124;2023-05-21T08:32:03;22.30;99.90
31735;DHT22;18313;48.518;9.124;2023-05-21T08:34:30;22.40;99.90
31735;DHT22;18313;48.518;9.124;2023-05-21T08:36:57;22.30;99.90
31735;DHT22;18313;48.518;9.124;2023-05-21T08:39:27;22.40;99.90
31735;DHT22;18313;48.518;9.124;2023-05-21T08:42:01;22.30;99.90
31735;DHT22;18313;48.518;9.124;2023-05-21T08:44:32;22.40;99.90
31735;DHT22;18313;48.518;9.124;2023-05-21T08:47:01;22.50;99.90
31735;DHT22;18313;48.518;9.124;2023-05-21T08:49:33;22.70;99.90
31735;DHT22;18313;48.518;9.124;2023-05-21T08:52:02;22.60;99.90
31735;DHT22;18313;48.518;9.124;2023-05-21T08:54:29;22.90;99.90
31735;DHT22;18313;48.518;9.124;2023-05-21T08:56:57;23.40;99.90
31735;DHT22;18313;48.518;9.124;2023-05-21T08:59:25;23.80;99.90
31735;DHT22;18313;48.518;9.124;2023-05-21T09:01:53;24.20;99.90
31735;DHT22;18313;48.518;9.124;2023-05-21T09:04:21;24.40;99.90
31735;DHT22;18313;48.518;9.124;2023-05-21T09:06:50;24.60;99.80
31735;DHT22;18313;48.518;9.124;2023-05-21T09:09:25;24.50;98.90
31735;DHT22;18313;48.518;9.124;2023-05-21T09:11:53;24.50;99.70
31735;DHT22;18313;48.518;9.124;2023-05-21T09:14:22;24.60;99.90
31735;DHT22;18313;48.518;9.124;2023-05-21T09:16:49;24.90;98.60
31735;DHT22;18313;48.518;9.124;2023-05-21T09:19:19;25.30;99.30
31735;DHT22;18313;48.518;9.124;2023-05-21T09:21:50;25.70;98.20
31735;DHT22;18313;48.518;9.124;2023-05-21T09:24:21;26.10;98.60
31735;DHT22;18313;48.518;9.124;2023-05-21T09:26:52;26.40;97.40
31735;DHT22;18313;48.518;9.124;2023-05-21T09:29:19;26.50;97.40
31735;DHT22;18313;48.518;9.124;2023-05-21T09:31:46;26.10;97.20
31735;DHT22;18313;48.518;9.124;2023-05-21T09:34:13;25.70;97.70
31735;DHT22;18313;48.518;9.124;2023-05-21T09:36:40;25.40;97.70
31735;DHT22;18313;48.518;9.124;2023-05-21T09:39:07;25.10;98.50
31735;DHT22;18313;48.518;9.124;2023-05-21T09:41:34;25.10;98.60
31735;DHT22;18313;48.518;9.124;2023-05-21T09:44:03;25.20;98.80
31735;DHT22;18313;48.518;9.124;2023-05-21T09:46:40;25.20;99.20
31735;DHT22;18313;48.518;9.124;2023-05-21T09:49:22;25.00;98.60
31735;DHT22;18313;48.518;9.124;2023-05-21T09:51:55;24.80;99.20
31735;DHT22;18313;48.518;9.124;2023-05-21T09:54:23;24.50;99.00
31735;DHT22;18313;48.518;9.124;2023-05-21T09:56:50;24.50;99.90
31735;DHT22;18313;48.518;9.124;2023-05-21T09:59:21;24.60;99.40
31735;DHT22;18313;48.518;9.124;2023-05-21T10:01:51;24.70;99.90
31735;DHT22;18313;48.518;9.124;2023-05-21T10:04:18;24.80;99.50
31735;DHT22;18313;48.518;9.124;2023-05-21T10:06:48;25.00;99.20
31735;DHT22;18313;48.518;9.124;2023-05-21T10:09:18;25.40;98.90
31735;DHT22;18313;48.518;9.124;2023-05-21T10:11:46;25.40;98.80
31735;DHT22;18313;48.518;9.124;2023-05-21T10:14:22;25.20;98.80
31735;DHT22;18313;48.518;9.124;2023-05-21T10:16:53;24.90;98.90
31735;DHT22;18313;48.518;9.124;2023-05-21T10:19:21;24.50;99.90
31735;DHT22;18313;48.518;9.124;2023-05-21T10:21:51;24.40;99.90
31735;DHT22;18313;48.518;9.124;2023-05-21T10:24:19;24.50;99.80
31735;DHT22;18313;48.518;9.124;2023-05-21T10:26:47;24.60;99.70
31735;DHT22;18313;48.518;9.124;2023-05-21T10:29:14;24.50;99.60
31735;DHT22;18313;48.518;9.124;2023-05-21T10:31:45;24.40;99.90
31735;DHT22;18313;48.518;9.124;2023-05-21T10:34:15;24.40;99.90
31735;DHT22;18313;48.518;9.124;2023-05-21T10:36:43;24.00;99.90
31735;DHT22;18313;48.518;9.124;2023-05-21T10:39:11;24.20;99.90
31735;DHT22;18313;48.518;9.124;2023-05-21T10:41:50;24.50;99.90
31735;DHT22;18313;48.518;9.124;2023-05-21T10:50:42;24.60;99.70
31735;DHT22;18313;48.518;9.124;2023-05-21T10:54:31;24.40;99.60
31735;DHT22;18313;48.518;9.124;2023-05-21T10:56:40;24.60;99.20
31735;DHT22;18313;48.518;9.124;2023-05-21T11:02:13;24.50;99.30
31735;DHT22;18313;48.518;9.124;2023-05-21T11:04:43;24.60;99.20
31735;DHT22;18313;48.518;9.124;2023-05-21T11:07:11;24.60;99.90
31735;DHT22;18313;48.518;9.124;2023-05-21T11:09:39;24.60;99.50
31735;DHT22;18313;48.518;9.124;2023-05-21T11:12:06;24.60;99.80
31735;DHT22;18313;48.518;9.124;2023-05-21T11:14:36;24.80;99.90
31735;DHT22;18313;48.518;9.124;2023-05-21T11:17:14;25.20;99.90
31735;DHT22;18313;48.518;9.124;2023-05-21T11:19:43;25.30;98.70
31735;DHT22;18313;48.518;9.124;2023-05-21T11:22:23;25.50;98.90
31735;DHT22;18313;48.518;9.124;2023-05-21T11:24:54;25.60;98.50
31735;DHT22;18313;48.518;9.124;2023-05-21T11:30:06;25.80;99.20
31735;DHT22;18313;48.518;9.124;2023-05-21T11:32:38;25.90;99.00
31735;DHT22;18313;48.518;9.124;2023-05-21T11:35:08;26.00;97.70
31735;DHT22;18313;48.518;9.124;2023-05-21T11:37:39;25.90;97.80
31735;DHT22;18313;48.518;9.124;2023-05-21T11:40:23;25.80;98.10
31735;DHT22;18313;48.518;9.124;2023-05-21T11:42:53;25.70;98.70
31735;DHT22;18313;48.518;9.124;2023-05-21T11:45:22;25.90;97.70
31735;DHT22;18313;48.518;9.124;2023-05-21T11:47:50;26.10;97.70
31735;DHT22;18313;48.518;9.124;2023-05-21T11:50:18;26.30;97.40
31735;DHT22;18313;48.518;9.124;2023-05-21T11:52:47;26.40;97.30
31735;DHT22;18313;48.518;9.124;2023-05-21T11:55:15;26.30;96.50
31735;DHT22;18313;48.518;9.124;2023-05-21T11:57:47;26.40;96.90
31735;DHT22;18313;48.518;9.124;2023-05-21T12:00:15;25.90;97.00
31735;DHT22;18313;48.518;9.124;2023-05-21T12:02:49;25.70;95.60
31735;DHT22;18313;48.518;9.124;2023-05-21T12:05:16;25.50;97.30
31735;DHT22;18313;48.518;9.124;2023-05-21T12:07:48;25.90;97.50
31735;DHT22;18313;48.518;9.124;2023-05-21T12:10:21;26.00;95.70
31735;DHT22;18313;48.518;9.124;2023-05-21T12:12:49;26.00;96.40
31735;DHT22;18313;48.518;9.124;2023-05-21T12:15:23;26.40;96.50
31735;DHT22;18313;48.518;9.124;2023-05-21T12:17:51;26.50;96.50
31735;DHT22;18313;48.518;9.124;2023-05-21T12:20:20;26.30;95.00
31735;DHT22;18313;48.518;9.124;2023-05-21T12:22:48;26.50;96.20
31735;DHT22;18313;48.518;9.124;2023-05-21T12:25:19;26.60;96.10
31735;DHT22;18313;48.518;9.124;2023-05-21T12:27:47;26.50;94.70
31735;DHT22;18313;48.518;9.124;2023-05-21T12:30:18;26.20;94.80
31735;DHT22;18313;48.518;9.124;2023-05-21T12:32:45;26.30;95.80
31735;DHT22;18313;48.518;9.124;2023-05-21T12:35:22;26.40;94.80
31735;DHT22;18313;48.518;9.124;2023-05-21T12:37:50;26.30;94.50
31735;DHT22;18313;48.518;9.124;2023-05-21T12:40:18;26.40;94.50
31735;DHT22;18313;48.518;9.124;2023-05-21T12:42:45;26.40;95.00
31735;DHT22;18313;48.518;9.124;2023-05-21T12:45:13;26.40;94.60
31735;DHT22;18313;48.518;9.124;2023-05-21T12:47:40;26.30;94.10
31735;DHT22;18313;48.518;9.124;2023-05-21T12:50:08;26.00;94.50
31735;DHT22;18313;48.518;9.124;2023-05-21T12:52:39;26.00;94.60
31735;DHT22;18313;48.518;9.124;2023-05-21T12:55:12;25.90;95.40
31735;DHT22;18313;48.518;9.124;2023-05-21T12:57:39;25.80;95.30
31735;DHT22;18313;48.518;9.124;2023-05-21T13:00:06;25.80;95.00
31735;DHT22;18313;48.518;9.124;2023-05-21T13:02:44;25.80;94.30
31735;DHT22;18313;48.518;9.124;2023-05-21T13:05:16;25.80;94.70
31735;DHT22;18313;48.518;9.124;2023-05-21T13:07:44;26.00;95.20
31735;DHT22;18313;48.518;9.124;2023-05-21T13:10:17;26.10;95.40
31735;DHT22;18313;48.518;9.124;2023-05-21T13:12:44;26.10;94.10
31735;DHT22;18313;48.518;9.124;2023-05-21T13:15:13;25.90;94.60
31735;DHT22;18313;48.518;9.124;2023-05-21T13:17:40;25.70;94.70
31735;DHT22;18313;48.518;9.124;2023-05-21T13:20:08;25.30;95.40
31735;DHT22;18313;48.518;9.124;2023-05-21T13:22:39;25.20;94.90
31735;DHT22;18313;48.518;9.124;2023-05-21T13:25:10;24.90;95.30
31735;DHT22;18313;48.518;9.124;2023-05-21T13:27:38;24.80;95.80
31735;DHT22;18313;48.518;9.124;2023-05-21T13:30:06;24.90;95.30
31735;DHT22;18313;48.518;9.124;2023-05-21T13:32:33;25.00;95.30
31735;DHT22;18313;48.518;9.124;2023-05-21T13:35:01;24.90;96.00
31735;DHT22;18313;48.518;9.124;2023-05-21T13:37:27;24.90;95.70
31735;DHT22;18313;48.518;9.124;2023-05-21T13:39:55;24.70;95.50
31735;DHT22;18313;48.518;9.124;2023-05-21T13:42:22;24.70;95.50
31735;DHT22;18313;48.518;9.124;2023-05-21T13:44:50;24.70;95.80
31735;DHT22;18313;48.518;9.124;2023-05-21T13:47:17;24.60;95.90
31735;DHT22;18313;48.518;9.124;2023-05-21T13:49:46;24.70;96.00
31735;DHT22;18313;48.518;9.124;2023-05-21T13:52:13;24.60;96.00
31735;DHT22;18313;48.518;9.124;2023-05-21T13:54:41;24.60;95.50
31735;DHT22;18313;48.518;9.124;2023-05-21T13:57:09;24.60;96.00
31735;DHT22;18313;48.518;9.124;2023-05-21T13:59:36;24.70;96.50
31735;DHT22;18313;48.518;9.124;2023-05-21T14:02:03;24.70;96.00
31735;DHT22;18313;48.518;9.124;2023-05-21T14:04:31;24.80;95.90
31735;DHT22;18313;48.518;9.124;2023-05-21T14:06:58;24.80;96.50
31735;DHT22;18313;48.518;9.124;2023-05-21T14:09:25;24.90;95.90
31735;DHT22;18313;48.518;9.124;2023-05-21T14:11:56;24.90;96.40
31735;DHT22;18313;48.518;9.124;2023-05-21T14:14:24;24.80;96.10
31735;DHT22;18313;48.518;9.124;2023-05-21T14:16:51;24.90;96.00
31735;DHT22;18313;48.518;9.124;2023-05-21T14:19:18;24.90;95.90
31735;DHT22;18313;48.518;9.124;2023-05-21T14:21:46;25.00;95.40
31735;DHT22;18313;48.518;9.124;2023-05-21T14:24:13;25.00;95.90
31735;DHT22;18313;48.518;9.124;2023-05-21T14:26:40;24.90;96.80
31735;DHT22;18313;48.518;9.124;2023-05-21T14:29:08;25.00;96.30
31735;DHT22;18313;48.518;9.124;2023-05-21T14:31:35;25.00;96.20
31735;DHT22;18313;48.518;9.124;2023-05-21T14:34:02;25.10;96.10
31735;DHT22;18313;48.518;9.124;2023-05-21T14:36:31;25.10;95.60
31735;DHT22;18313;48.518;9.124;2023-05-21T14:38:58;25.00;95.90
31735;DHT22;18313;48.518;9.124;2023-05-21T14:41:26;25.10;96.20
31735;DHT22;18313;48.518;9.124;2023-05-21T14:43:53;25.30;96.30
31735;DHT22;18313;48.518;9.124;2023-05-21T14:46:21;25.30;95.60
31735;DHT22;18313;48.518;9.124;2023-05-21T14:48:48;25.40;95.80
31735;DHT22;18313;48.518;9.124;2023-05-21T14:51:15;25.60;96.10
31735;DHT22;18313;48.518;9.124;2023-05-21T14:53:42;25.80;95.40
31735;DHT22;18313;48.518;9.124;2023-05-21T14:56:09;25.70;94.40
31735;DHT22;18313;48.518;9.124;2023-05-21T14:58:37;25.50;94.90
31735;DHT22;18313;48.518;9.124;2023-05-21T15:01:05;25.50;94.90
31735;DHT22;18313;48.518;9.124;2023-05-21T15:03:32;25.60;95.30
31735;DHT22;18313;48.518;9.124;2023-05-21T15:05:59;25.60;94.80
31735;DHT22;18313;48.518;9.124;2023-05-21T15:08:26;25.60;94.50
31735;DHT22;18313;48.518;9.124;2023-05-21T15:10:53;25.70;94.80
31735;DHT22;18313;48.518;9.124;2023-05-21T15:13:21;25.80;94.70
31735;DHT22;18313;48.518;9.124;2023-05-21T15:15:48;25.90;94.00
31735;DHT22;18313;48.518;9.124;2023-05-21T15:18:15;25.90;94.60
31735;DHT22;18313;48.518;9.124;2023-05-21T15:20:43;25.80;94.30
31735;DHT22;18313;48.518;9.124;2023-05-21T15:23:10;25.80;94.50
31735;DHT22;18313;48.518;9.124;2023-05-21T15:25:44;25.80;94.30
31735;DHT22;18313;48.518;9.124;2023-05-21T15:28:11;25.90;94.70
31735;DHT22;18313;48.518;9.124;2023-05-21T15:30:39;26.00;94.00
31735;DHT22;18313;48.518;9.124;2023-05-21T15:33:06;26.00;94.30
31735;DHT22;18313;48.518;9.124;2023-05-21T15:35:36;25.90;95.20
31735;DHT22;18313;48.518;9.124;2023-05-21T15:38:04;25.90;94.00
31735;DHT22;18313;48.518;9.124;2023-05-21T15:40:31;25.70;93.80
31735;DHT22;18313;48.518;9.124;2023-05-21T15:42:58;25.60;94.00
31735;DHT22;18313;48.518;9.124;2023-05-21T15:45:26;25.50;94.50
31735;DHT22;18313;48.518;9.124;2023-05-21T15:47:52;25.40;95.00
31735;DHT22;18313;48.518;9.124;2023-05-21T15:50:20;25.40;94.80